logo
Search for airport 
image banner adimage banner adimage banner ad
image banner ad

36VT - North Hero Passage

Located in North Hero, United States

ICAO - 36VT, IATA -

Data provided by Airmate  

General information

Coordinates: N44°51'36" W73°16'57"
Elevation is 95 feet MSL.
 
View others Airports in Vermont

Operational data

Special qualification required
Current time UTC:
Current local time:
Weather at : KFSO - Franklin County State ( 17 km )
METAR: KFSO 131535Z AUTO 23007G14KT 200V260 10SM OVC060 11/02 A2939 RMK AO2 T01060016
View NOTAMs / SUP AIP / TFR affecting this airport [VIEW]
Communications frequencies: [VIEW]

Runways:

RWY identifierQFULength (ft)Width (ft)SurfaceLDA (ft)
01W2500100WATER
19W2500100WATER

Airport contact information

Address: North Hero United States

Satellite view of 36VT